createdAt,value
2022-09-05T00:00:17.927Z,13.50
2022-09-05T00:03:22.638Z,13.50
2022-09-05T00:06:24.879Z,13.50
2022-09-05T00:08:57.451Z,13.50
2022-09-05T00:11:55.928Z,13.60
2022-09-05T00:15:16.890Z,13.60
2022-09-05T00:19:46.563Z,13.60
2022-09-05T00:24:25.525Z,13.70
2022-09-05T00:24:37.401Z,13.80
2022-09-05T00:26:50.997Z,13.90
2022-09-05T00:29:43.361Z,14.00
2022-09-05T00:32:36.456Z,13.90
2022-09-05T00:35:30.081Z,13.80
2022-09-05T00:38:09.286Z,13.90
2022-09-05T00:40:38.109Z,13.90
2022-09-05T00:43:19.836Z,13.90
2022-09-05T00:46:13.553Z,13.80
2022-09-05T00:49:26.863Z,13.90
2022-09-05T00:52:05.565Z,13.90
2022-09-05T00:55:14.637Z,13.90
2022-09-05T00:58:21.817Z,13.80
2022-09-05T01:01:31.774Z,13.60
2022-09-05T01:03:58.428Z,13.40
2022-09-05T01:06:42.991Z,13.30
2022-09-05T01:09:46.949Z,13.20
2022-09-05T01:12:32.124Z,13.10
2022-09-05T01:15:12.723Z,13.00
2022-09-05T01:18:00.407Z,13.10
2022-09-05T01:20:51.577Z,13.30
2022-09-05T01:23:36.998Z,13.40
2022-09-05T01:26:57.647Z,13.70
2022-09-05T01:29:50.051Z,13.80
2022-09-05T01:32:51.806Z,13.70
2022-09-05T01:36:03.853Z,13.50
2022-09-05T01:39:40.853Z,13.30
2022-09-05T01:41:57.223Z,13.10
2022-09-05T01:44:37.479Z,12.90
2022-09-05T01:47:15.637Z,12.80
2022-09-05T01:50:00.926Z,12.70
2022-09-05T01:53:06.008Z,12.70
2022-09-05T01:56:05.092Z,12.80
2022-09-05T01:58:50.321Z,12.90
2022-09-05T02:01:40.866Z,13.00
2022-09-05T02:04:45.167Z,13.20
2022-09-05T02:07:48.970Z,13.30
2022-09-05T02:10:34.213Z,13.30
2022-09-05T02:13:22.129Z,13.30
2022-09-05T02:16:13.271Z,13.40
2022-09-05T02:19:09.775Z,13.50
2022-09-05T02:21:55.584Z,13.50
2022-09-05T02:24:44.465Z,13.60
2022-09-05T02:28:04.591Z,13.60
2022-09-05T02:30:23.157Z,13.60
2022-09-05T02:33:17.468Z,13.60
2022-09-05T02:36:12.414Z,13.60
2022-09-05T02:40:21.946Z,13.60
2022-09-05T02:45:06.887Z,13.50
2022-09-05T02:45:23.830Z,13.50
2022-09-05T02:47:59.606Z,13.30
2022-09-05T02:53:25.105Z,13.30
2022-09-05T02:57:27.241Z,13.30
2022-09-05T02:57:43.492Z,13.30
2022-09-05T02:59:39.133Z,13.30
2022-09-05T03:02:24.946Z,13.40
2022-09-05T03:05:25.329Z,13.50
2022-09-05T03:08:22.631Z,13.60
2022-09-05T03:11:08.493Z,13.70
2022-09-05T03:14:02.155Z,13.70
2022-09-05T03:17:05.775Z,13.70
2022-09-05T03:20:08.849Z,13.80
2022-09-05T03:22:50.233Z,14.00
2022-09-05T03:26:00.826Z,14.00
2022-09-05T03:28:54.877Z,14.20
2022-09-05T03:31:59.484Z,14.30
2022-09-05T03:35:08.282Z,14.30
2022-09-05T03:38:06.009Z,14.20
2022-09-05T03:41:10.230Z,14.20
2022-09-05T03:43:47.650Z,14.20
2022-09-05T03:46:31.996Z,14.10
2022-09-05T03:50:27.447Z,14.10
2022-09-05T03:57:07.375Z,14.00
2022-09-05T03:57:10.633Z,14.10
2022-09-05T03:58:36.689Z,14.20
2022-09-05T04:04:10.875Z,14.20
2022-09-05T04:08:10.403Z,14.30
2022-09-05T04:08:13.436Z,14.30
2022-09-05T04:10:53.654Z,14.30
2022-09-05T04:13:32.181Z,14.30
2022-09-05T04:16:20.264Z,14.20
2022-09-05T04:18:54.658Z,14.10
2022-09-05T04:21:27.330Z,14.10
2022-09-05T04:24:09.206Z,14.00
2022-09-05T04:27:01.219Z,14.00
2022-09-05T04:30:13.011Z,13.90
2022-09-05T04:33:02.781Z,13.90
2022-09-05T04:35:40.227Z,13.90
2022-09-05T04:38:33.571Z,13.80
2022-09-05T04:41:06.509Z,13.70
2022-09-05T04:43:42.283Z,13.70
2022-09-05T04:46:28.683Z,13.60
2022-09-05T04:49:27.229Z,13.60
2022-09-05T04:52:34.929Z,13.60
2022-09-05T04:55:46.874Z,13.60
2022-09-05T05:00:51.369Z,13.70
2022-09-05T05:05:59.772Z,13.80
2022-09-05T05:06:11.396Z,13.80
2022-09-05T05:07:28.350Z,13.80
2022-09-05T05:11:22.885Z,13.80
2022-09-05T05:18:00.615Z,13.80
2022-09-05T05:18:09.597Z,13.80
2022-09-05T05:19:18.622Z,13.80
2022-09-05T05:21:52.292Z,13.90
2022-09-05T05:24:25.877Z,13.90
2022-09-05T05:27:01.388Z,13.90
2022-09-05T05:29:36.923Z,14.10
2022-09-05T05:32:05.310Z,14.20
2022-09-05T05:34:43.146Z,14.40
2022-09-05T05:37:46.305Z,14.50
2022-09-05T05:40:16.053Z,14.60
2022-09-05T05:42:44.399Z,14.80
2022-09-05T05:45:21.299Z,15.00
2022-09-05T05:47:55.068Z,15.10
2022-09-05T05:50:45.444Z,15.30
2022-09-05T05:53:43.078Z,15.40
2022-09-05T05:57:02.406Z,15.60
2022-09-05T06:00:07.094Z,15.80
2022-09-05T06:02:37.103Z,15.90
2022-09-05T06:05:16.591Z,16.20
2022-09-05T06:08:29.149Z,16.70
2022-09-05T06:14:56.181Z,17.50
2022-09-05T06:15:05.919Z,18.30
2022-09-05T06:17:29.639Z,19.10
2022-09-05T06:22:07.470Z,19.70
2022-09-05T06:23:40.290Z,20.20
2022-09-05T06:26:28.745Z,20.70
2022-09-05T06:29:13.472Z,21.30
2022-09-05T06:32:01.565Z,21.90
2022-09-05T06:34:55.195Z,22.10
2022-09-05T06:37:40.731Z,22.20
2022-09-05T06:40:55.672Z,22.50
2022-09-05T06:43:58.914Z,22.50
2022-09-05T06:46:54.230Z,23.00
2022-09-05T06:49:30.818Z,23.30
2022-09-05T06:52:29.483Z,23.60
2022-09-05T06:55:27.353Z,23.90
2022-09-05T06:58:18.556Z,24.30
2022-09-05T07:09:28.750Z,24.40
2022-09-05T07:12:13.312Z,25.40
2022-09-05T07:14:59.377Z,25.30
2022-09-05T07:18:09.670Z,25.50
2022-09-05T07:21:12.309Z,25.70
2022-09-05T07:24:10.294Z,25.90
2022-09-05T07:26:51.637Z,26.10
2022-09-05T07:29:27.729Z,26.00
2022-09-05T07:31:56.081Z,25.80
2022-09-05T07:34:28.636Z,25.80
2022-09-05T07:37:15.921Z,25.30
2022-09-05T07:40:25.229Z,25.10
2022-09-05T07:43:18.889Z,25.40
2022-09-05T07:46:06.270Z,25.70
2022-09-05T07:48:37.510Z,25.20
2022-09-05T07:56:49.058Z,24.60
2022-09-05T07:57:15.685Z,24.60
2022-09-05T07:59:44.665Z,25.50
2022-09-05T08:02:15.449Z,25.50
2022-09-05T08:04:42.304Z,25.50
2022-09-05T08:07:49.238Z,25.30
2022-09-05T08:10:17.881Z,25.30
2022-09-05T08:13:24.458Z,26.10
2022-09-05T08:16:09.867Z,26.70
2022-09-05T08:18:50.490Z,27.40
2022-09-05T08:21:27.719Z,28.00
2022-09-05T08:24:20.437Z,28.30
2022-09-05T08:27:16.386Z,28.50
2022-09-05T08:29:51.319Z,27.90
2022-09-05T08:33:11.104Z,28.20
2022-09-05T08:36:00.931Z,27.70
2022-09-05T08:38:40.261Z,26.90
2022-09-05T08:41:50.259Z,27.10
2022-09-05T08:46:40.347Z,27.50
2022-09-05T08:47:56.274Z,28.40
2022-09-05T08:50:54.038Z,28.90
2022-09-05T08:53:48.785Z,28.80
2022-09-05T08:56:22.264Z,29.00
2022-09-05T08:59:32.696Z,28.80
2022-09-05T09:02:47.304Z,28.40
2022-09-05T09:05:24.360Z,28.20
2022-09-05T09:08:17.554Z,29.20
2022-09-05T09:10:46.060Z,29.80
2022-09-05T09:13:52.672Z,29.90
2022-09-05T09:16:38.990Z,29.80
2022-09-05T09:19:11.739Z,29.50
2022-09-05T09:21:46.440Z,29.50
2022-09-05T09:24:30.244Z,28.90
2022-09-05T09:27:16.470Z,29.20
2022-09-05T09:29:53.891Z,29.90
2022-09-05T09:32:24.391Z,30.10
2022-09-05T09:35:07.361Z,30.10
2022-09-05T09:38:05.499Z,30.40
2022-09-05T09:41:10.869Z,29.90
2022-09-05T09:44:02.029Z,29.90
2022-09-05T09:46:39.759Z,29.80
2022-09-05T09:49:23.352Z,29.90
2022-09-05T09:52:20.749Z,29.70
2022-09-05T09:55:25.438Z,29.90
2022-09-05T09:57:56.698Z,29.30
2022-09-05T10:00:25.060Z,28.70
2022-09-05T10:05:33.866Z,28.90
2022-09-05T10:10:34.718Z,29.70
2022-09-05T10:10:49.409Z,29.70
2022-09-05T10:12:49.803Z,29.40
2022-09-05T10:15:38.170Z,30.20
2022-09-05T10:18:16.010Z,30.90
2022-09-05T10:21:15.512Z,30.70
2022-09-05T10:23:53.576Z,30.30
2022-09-05T10:26:27.610Z,30.60
2022-09-05T10:29:17.064Z,30.10
2022-09-05T10:35:09.624Z,30.30
2022-09-05T10:35:12.788Z,30.40
2022-09-05T10:38:11.331Z,31.10
2022-09-05T10:41:20.424Z,31.60
2022-09-05T11:39:14.826Z,31.80
2022-09-05T11:39:57.302Z,33.70
2022-09-05T11:40:28.964Z,33.40
2022-09-05T11:43:02.701Z,33.60
2022-09-05T11:46:00.692Z,32.90
2022-09-05T11:48:54.990Z,32.70
2022-09-05T11:51:46.904Z,32.60
2022-09-05T11:54:37.986Z,32.30
2022-09-05T11:57:33.637Z,31.80
2022-09-05T12:00:33.058Z,31.70
2022-09-05T12:03:05.063Z,31.50
2022-09-05T12:05:48.965Z,31.90
2022-09-05T12:08:43.417Z,32.40
2022-09-05T12:11:16.622Z,32.90
2022-09-05T12:13:49.190Z,32.80
2022-09-05T12:16:49.860Z,32.80
2022-09-05T12:19:55.173Z,33.20
2022-09-05T12:22:38.299Z,32.30
2022-09-05T12:27:45.062Z,31.80
2022-09-05T12:29:26.217Z,31.90
2022-09-05T12:32:36.541Z,31.60
2022-09-05T12:36:07.147Z,32.30
2022-09-05T12:41:36.334Z,32.70
2022-09-05T12:41:42.381Z,32.60
2022-09-05T12:44:45.465Z,32.80
2022-09-05T12:46:36.062Z,32.80
2022-09-05T12:49:16.959Z,32.20
2022-09-05T12:52:00.238Z,32.30
2022-09-05T12:54:34.773Z,32.30
2022-09-05T13:01:19.059Z,32.70
2022-09-05T13:03:01.749Z,33.00
2022-09-05T13:03:35.648Z,33.60
2022-09-05T13:05:57.425Z,33.50
2022-09-05T13:08:31.052Z,34.20
2022-09-05T13:14:50.361Z,34.50
2022-09-05T13:14:54.035Z,34.70
2022-09-05T13:16:48.033Z,35.20
2022-09-05T13:19:51.266Z,35.50
2022-09-05T13:22:28.624Z,35.90
2022-09-05T13:25:08.775Z,36.30
2022-09-05T13:27:41.293Z,36.10
2022-09-05T13:31:01.376Z,35.90
2022-09-05T13:38:05.802Z,35.90
2022-09-05T13:38:17.617Z,35.80
2022-09-05T13:39:06.885Z,36.00
2022-09-05T13:42:03.868Z,35.70
2022-09-05T13:44:37.913Z,35.50
2022-09-05T13:48:01.830Z,35.00
2022-09-05T13:50:43.735Z,34.20
2022-09-05T13:53:51.491Z,33.90
2022-09-05T13:56:24.120Z,34.80
2022-09-05T13:59:16.450Z,35.10
2022-09-05T14:02:24.933Z,35.20
2022-09-05T14:05:21.084Z,36.20
2022-09-05T14:08:33.799Z,35.80
2022-09-05T14:11:27.841Z,36.00
2022-09-05T14:14:03.160Z,36.30
2022-09-05T14:16:54.387Z,36.40
2022-09-05T14:19:43.485Z,36.90
2022-09-05T14:22:20.149Z,37.10
2022-09-05T14:24:50.144Z,37.10
2022-09-05T14:27:25.902Z,37.10
2022-09-05T14:32:45.964Z,37.50
2022-09-05T14:37:42.355Z,38.00
2022-09-05T14:37:53.549Z,38.10
2022-09-05T14:39:45.748Z,37.20
2022-09-05T14:42:24.103Z,37.20
2022-09-05T14:45:06.234Z,37.20
2022-09-05T14:47:50.578Z,37.20
2022-09-05T14:50:46.219Z,36.80
2022-09-05T14:56:51.579Z,37.60
2022-09-05T15:02:46.198Z,37.50
2022-09-05T15:02:58.087Z,37.80
2022-09-05T15:05:12.905Z,38.40
2022-09-05T15:07:48.618Z,38.00
2022-09-05T15:12:16.061Z,37.50
2022-09-05T15:13:25.983Z,36.80
2022-09-05T15:16:08.817Z,37.30
2022-09-05T15:18:38.313Z,37.40
2022-09-05T15:21:33.291Z,37.40
2022-09-05T15:24:24.341Z,37.30
2022-09-05T15:26:56.998Z,37.60
2022-09-05T15:29:29.361Z,37.40
2022-09-05T15:32:18.623Z,37.60
2022-09-05T15:34:45.511Z,37.70
2022-09-05T15:37:32.995Z,37.80
2022-09-05T15:40:23.071Z,37.50
2022-09-05T15:42:55.021Z,38.10
2022-09-05T15:45:29.946Z,38.30
2022-09-05T15:48:06.361Z,38.20
2022-09-05T15:51:16.991Z,38.10
2022-09-05T15:53:43.943Z,38.10
2022-09-05T15:56:10.778Z,37.60
2022-09-05T15:58:54.875Z,37.30
2022-09-05T16:01:58.411Z,36.90
2022-09-05T16:08:05.503Z,36.00
2022-09-05T16:10:43.607Z,35.20
2022-09-05T16:10:49.375Z,34.10
2022-09-05T16:13:17.864Z,33.10
2022-09-05T16:22:01.248Z,32.10
2022-09-05T16:23:29.524Z,31.30
2022-09-05T16:23:31.904Z,30.60
2022-09-05T16:24:58.137Z,30.10
2022-09-05T16:27:19.374Z,29.50
2022-09-05T16:29:50.489Z,29.20
2022-09-05T16:32:28.055Z,29.00
2022-09-05T16:35:08.987Z,28.80
2022-09-05T16:38:12.763Z,28.50
2022-09-05T16:40:43.074Z,28.10
2022-09-05T16:43:20.751Z,27.60
2022-09-05T16:45:59.598Z,27.20
2022-09-05T16:48:34.593Z,26.90
2022-09-05T16:51:35.347Z,26.60
2022-09-05T16:54:26.217Z,26.30
2022-09-05T16:57:05.509Z,26.00
2022-09-05T16:59:36.748Z,25.80
2022-09-05T17:02:24.980Z,25.60
2022-09-05T17:05:11.765Z,25.40
2022-09-05T17:07:57.193Z,25.20
2022-09-05T17:10:57.701Z,25.00
2022-09-05T17:13:34.132Z,24.90
2022-09-05T17:16:03.002Z,24.70
2022-09-05T17:18:37.073Z,24.70
2022-09-05T17:21:12.998Z,24.60
2022-09-05T17:29:30.256Z,24.60
2022-09-05T17:29:38.423Z,24.50
2022-09-05T17:32:43.995Z,24.40
2022-09-05T17:35:17.724Z,24.40
2022-09-05T17:38:11.487Z,24.30
2022-09-05T17:41:11.225Z,24.10
2022-09-05T17:43:40.059Z,23.90
2022-09-05T17:46:20.275Z,23.70
2022-09-05T17:48:49.278Z,23.40
2022-09-05T17:51:34.396Z,23.20
2022-09-05T17:54:07.640Z,23.00
2022-09-05T17:56:41.760Z,22.80
2022-09-05T17:59:14.155Z,22.60
2022-09-05T18:01:46.023Z,22.30
2022-09-05T18:04:48.067Z,22.10
2022-09-05T18:07:28.993Z,21.90
2022-09-05T18:13:31.428Z,21.40
2022-09-05T18:15:38.281Z,21.20
2022-09-05T18:18:08.726Z,21.00
2022-09-05T18:24:04.152Z,20.80
2022-09-05T18:26:42.238Z,20.70
2022-09-05T18:29:58.816Z,20.70
2022-09-05T18:32:54.170Z,20.70
2022-09-05T18:35:40.790Z,20.60
2022-09-05T18:38:15.602Z,20.40
2022-09-05T18:40:45.877Z,20.40
2022-09-05T18:43:35.820Z,20.40
2022-09-05T18:46:14.275Z,20.40
2022-09-05T18:48:55.544Z,20.30
2022-09-05T18:51:49.287Z,20.20
2022-09-05T18:54:20.507Z,20.00
2022-09-05T18:57:15.324Z,19.90
2022-09-05T18:59:48.908Z,19.70
2022-09-05T19:02:41.059Z,19.60
2022-09-05T19:05:49.181Z,19.50
2022-09-05T19:08:41.969Z,19.30
2022-09-05T19:11:28.733Z,19.20
2022-09-05T19:14:25.414Z,19.10
2022-09-05T19:16:48.392Z,19.00
2022-09-05T19:19:24.890Z,19.00
2022-09-05T19:22:37.255Z,19.00
2022-09-05T19:24:46.335Z,19.10
2022-09-05T19:28:26.353Z,19.00
2022-09-05T19:36:45.721Z,19.00
2022-09-05T19:36:55.107Z,18.90
2022-09-05T19:36:59.345Z,18.90
2022-09-05T19:38:38.371Z,18.90
2022-09-05T19:47:31.500Z,18.90
2022-09-05T19:47:43.458Z,18.70
2022-09-05T19:47:48.176Z,18.60
2022-09-05T19:50:03.387Z,18.60
2022-09-05T19:52:30.177Z,18.40
2022-09-05T19:55:02.132Z,18.40
2022-09-05T19:57:31.999Z,18.40
2022-09-05T20:00:02.714Z,18.30
2022-09-05T20:02:34.831Z,18.30
2022-09-05T20:05:06.948Z,18.30
2022-09-05T20:07:35.788Z,18.30
2022-09-05T20:10:04.298Z,18.30
2022-09-05T20:12:39.175Z,18.20
2022-09-05T20:15:21.184Z,18.10
2022-09-05T20:17:53.782Z,18.00
2022-09-05T20:20:25.821Z,18.00
2022-09-05T20:22:59.152Z,17.90
2022-09-05T20:25:37.984Z,17.80
2022-09-05T20:28:14.286Z,17.70
2022-09-05T20:30:54.237Z,17.60
2022-09-05T20:33:39.656Z,17.60
2022-09-05T20:40:41.726Z,17.50
2022-09-05T20:43:26.644Z,17.40
2022-09-05T20:43:30.011Z,17.30
2022-09-05T20:44:51.087Z,17.10
2022-09-05T20:53:35.169Z,17.00
2022-09-05T20:54:08.427Z,16.90
2022-09-05T20:54:27.632Z,16.70
2022-09-05T20:56:23.933Z,16.70
2022-09-05T20:58:51.806Z,16.80
2022-09-05T21:01:23.622Z,16.80
2022-09-05T21:04:02.276Z,16.80
2022-09-05T21:06:34.433Z,16.80
2022-09-05T21:09:25.215Z,16.80
2022-09-05T21:11:55.727Z,16.70
2022-09-05T21:14:24.764Z,16.70
2022-09-05T21:17:08.297Z,16.60
2022-09-05T21:19:53.280Z,16.50
2022-09-05T21:22:24.875Z,16.30
2022-09-05T21:25:13.404Z,16.30
2022-09-05T21:27:42.577Z,16.30
2022-09-05T21:30:36.640Z,16.30
2022-09-05T21:33:45.458Z,16.30
2022-09-05T21:36:12.073Z,16.20
2022-09-05T21:38:43.273Z,16.20
2022-09-05T21:41:15.811Z,16.20
2022-09-05T21:47:37.538Z,16.30
2022-09-05T21:47:41.336Z,16.30
2022-09-05T21:49:22.633Z,16.30
2022-09-05T21:51:52.662Z,16.30
2022-09-05T21:59:18.876Z,16.10
2022-09-05T21:59:21.205Z,16.20
2022-09-05T22:00:11.311Z,16.10
2022-09-05T22:02:38.402Z,16.10
2022-09-05T22:05:05.622Z,16.20
2022-09-05T22:07:35.749Z,16.20
2022-09-05T22:10:04.603Z,16.10
2022-09-05T22:12:35.671Z,16.10
2022-09-05T22:15:26.803Z,16.10
2022-09-05T22:17:54.189Z,16.00
2022-09-05T22:20:25.369Z,16.10
2022-09-05T22:22:56.337Z,16.20
2022-09-05T22:25:31.111Z,16.10
2022-09-05T22:28:22.027Z,16.10
2022-09-05T22:30:57.025Z,16.00
2022-09-05T22:33:25.003Z,15.90
2022-09-05T22:35:51.717Z,15.80
2022-09-05T22:38:20.122Z,15.70
2022-09-05T22:40:47.926Z,15.70
2022-09-05T22:43:16.588Z,15.60
2022-09-05T22:45:43.468Z,15.50
2022-09-05T22:48:12.721Z,15.40
2022-09-05T22:50:40.628Z,15.30
2022-09-05T22:53:11.102Z,15.20
2022-09-05T22:55:40.371Z,15.20
2022-09-05T22:58:09.094Z,15.20
2022-09-05T23:00:38.981Z,15.30
2022-09-05T23:03:06.846Z,15.30
2022-09-05T23:05:33.969Z,15.20
2022-09-05T23:08:09.206Z,15.20
2022-09-05T23:10:37.304Z,15.20
2022-09-05T23:13:06.068Z,15.20
2022-09-05T23:15:33.251Z,15.30
2022-09-05T23:18:00.670Z,15.40
2022-09-05T23:20:30.814Z,15.40
2022-09-05T23:23:01.840Z,15.30
2022-09-05T23:25:28.516Z,15.20
2022-09-05T23:27:55.251Z,15.20
2022-09-05T23:30:21.937Z,15.10
2022-09-05T23:32:52.797Z,15.10
2022-09-05T23:35:19.873Z,15.20
2022-09-05T23:37:47.763Z,15.20
2022-09-05T23:40:23.709Z,15.30
2022-09-05T23:42:55.750Z,15.20
2022-09-05T23:45:23.474Z,15.20
2022-09-05T23:47:50.643Z,15.20
2022-09-05T23:50:18.153Z,15.10
2022-09-05T23:52:45.845Z,15.10
2022-09-05T23:55:14.975Z,15.10
2022-09-05T23:57:41.984Z,15.10
